sensor_id;sensor_type;location;lat;lon;timestamp;temperature;humidity
55711;DHT22;41612;51.994;5.880;2023-12-07T00:00:28;2.00;86.00
55711;DHT22;41612;51.994;5.880;2023-12-07T00:02:54;2.00;86.10
55711;DHT22;41612;51.994;5.880;2023-12-07T00:05:19;2.00;86.30
55711;DHT22;41612;51.994;5.880;2023-12-07T00:07:45;2.00;86.20
55711;DHT22;41612;51.994;5.880;2023-12-07T00:10:11;2.00;86.20
55711;DHT22;41612;51.994;5.880;2023-12-07T00:12:37;2.00;86.30
55711;DHT22;41612;51.994;5.880;2023-12-07T00:15:06;2.00;86.30
55711;DHT22;41612;51.994;5.880;2023-12-07T00:17:32;2.00;86.20
55711;DHT22;41612;51.994;5.880;2023-12-07T00:19:59;1.90;86.20
55711;DHT22;41612;51.994;5.880;2023-12-07T00:22:25;1.90;86.10
55711;DHT22;41612;51.994;5.880;2023-12-07T00:24:52;1.90;86.00
55711;DHT22;41612;51.994;5.880;2023-12-07T00:27:18;1.90;86.10
55711;DHT22;41612;51.994;5.880;2023-12-07T00:29:44;1.90;86.10
55711;DHT22;41612;51.994;5.880;2023-12-07T00:32:10;1.80;86.00
55711;DHT22;41612;51.994;5.880;2023-12-07T00:34:35;1.90;86.00
55711;DHT22;41612;51.994;5.880;2023-12-07T00:37:01;1.80;85.90
55711;DHT22;41612;51.994;5.880;2023-12-07T00:39:28;1.80;85.90
55711;DHT22;41612;51.994;5.880;2023-12-07T00:41:53;1.80;85.90
55711;DHT22;41612;51.994;5.880;2023-12-07T00:44:19;1.80;85.90
55711;DHT22;41612;51.994;5.880;2023-12-07T00:46:45;1.80;86.00
55711;DHT22;41612;51.994;5.880;2023-12-07T00:49:10;1.80;86.10
55711;DHT22;41612;51.994;5.880;2023-12-07T00:51:36;1.80;86.10
55711;DHT22;41612;51.994;5.880;2023-12-07T00:54:03;1.80;86.20
55711;DHT22;41612;51.994;5.880;2023-12-07T00:56:28;1.80;86.30
55711;DHT22;41612;51.994;5.880;2023-12-07T00:58:54;1.80;86.40
55711;DHT22;41612;51.994;5.880;2023-12-07T01:01:20;1.80;86.30
55711;DHT22;41612;51.994;5.880;2023-12-07T01:03:45;1.80;86.20
55711;DHT22;41612;51.994;5.880;2023-12-07T01:06:11;1.80;86.30
55711;DHT22;41612;51.994;5.880;2023-12-07T01:08:37;1.70;86.20
55711;DHT22;41612;51.994;5.880;2023-12-07T01:11:04;1.80;86.30
55711;DHT22;41612;51.994;5.880;2023-12-07T01:13:30;1.80;86.20
55711;DHT22;41612;51.994;5.880;2023-12-07T01:15:56;1.80;86.20
55711;DHT22;41612;51.994;5.880;2023-12-07T01:18:21;1.80;86.20
55711;DHT22;41612;51.994;5.880;2023-12-07T01:20:47;1.80;86.20
55711;DHT22;41612;51.994;5.880;2023-12-07T01:23:14;1.80;86.30
55711;DHT22;41612;51.994;5.880;2023-12-07T01:25:39;1.80;86.30
55711;DHT22;41612;51.994;5.880;2023-12-07T01:28:05;1.80;86.30
55711;DHT22;41612;51.994;5.880;2023-12-07T01:30:33;1.80;86.30
55711;DHT22;41612;51.994;5.880;2023-12-07T01:33:00;1.80;86.30
55711;DHT22;41612;51.994;5.880;2023-12-07T01:35:26;1.80;86.40
55711;DHT22;41612;51.994;5.880;2023-12-07T01:37:52;1.80;86.30
55711;DHT22;41612;51.994;5.880;2023-12-07T01:40:18;1.80;86.20
55711;DHT22;41612;51.994;5.880;2023-12-07T01:42:53;1.80;86.20
55711;DHT22;41612;51.994;5.880;2023-12-07T01:45:20;1.70;86.20
55711;DHT22;41612;51.994;5.880;2023-12-07T01:47:46;1.70;86.20
55711;DHT22;41612;51.994;5.880;2023-12-07T01:50:18;1.70;86.20
55711;DHT22;41612;51.994;5.880;2023-12-07T01:53:01;1.70;86.20
55711;DHT22;41612;51.994;5.880;2023-12-07T01:55:28;1.70;86.30
55711;DHT22;41612;51.994;5.880;2023-12-07T01:57:55;1.70;86.30
55711;DHT22;41612;51.994;5.880;2023-12-07T02:00:21;1.70;86.20
55711;DHT22;41612;51.994;5.880;2023-12-07T02:02:47;1.70;86.30
55711;DHT22;41612;51.994;5.880;2023-12-07T02:05:13;1.70;86.30
55711;DHT22;41612;51.994;5.880;2023-12-07T02:07:42;1.70;86.20
55711;DHT22;41612;51.994;5.880;2023-12-07T02:10:10;1.60;86.30
55711;DHT22;41612;51.994;5.880;2023-12-07T02:12:36;1.60;86.30
55711;DHT22;41612;51.994;5.880;2023-12-07T02:15:03;1.60;86.60
55711;DHT22;41612;51.994;5.880;2023-12-07T02:17:51;1.60;86.60
55711;DHT22;41612;51.994;5.880;2023-12-07T02:20:28;1.60;86.60
55711;DHT22;41612;51.994;5.880;2023-12-07T02:22:56;1.60;86.60
55711;DHT22;41612;51.994;5.880;2023-12-07T02:25:36;1.60;86.50
55711;DHT22;41612;51.994;5.880;2023-12-07T02:28:03;1.60;86.50
55711;DHT22;41612;51.994;5.880;2023-12-07T02:30:28;1.70;86.40
55711;DHT22;41612;51.994;5.880;2023-12-07T02:32:55;1.70;86.40
55711;DHT22;41612;51.994;5.880;2023-12-07T02:35:21;1.80;86.50
55711;DHT22;41612;51.994;5.880;2023-12-07T02:37:51;1.80;86.50
55711;DHT22;41612;51.994;5.880;2023-12-07T02:40:22;1.80;86.50
55711;DHT22;41612;51.994;5.880;2023-12-07T02:42:48;1.80;86.50
55711;DHT22;41612;51.994;5.880;2023-12-07T02:45:15;1.80;86.60
55711;DHT22;41612;51.994;5.880;2023-12-07T02:47:41;1.80;86.60
55711;DHT22;41612;51.994;5.880;2023-12-07T02:50:09;1.80;86.50
55711;DHT22;41612;51.994;5.880;2023-12-07T02:52:35;1.80;86.50
55711;DHT22;41612;51.994;5.880;2023-12-07T02:55:01;1.80;86.50
55711;DHT22;41612;51.994;5.880;2023-12-07T02:57:28;1.80;86.50
55711;DHT22;41612;51.994;5.880;2023-12-07T02:59:55;1.80;86.50
55711;DHT22;41612;51.994;5.880;2023-12-07T03:02:20;1.80;86.60
55711;DHT22;41612;51.994;5.880;2023-12-07T03:04:46;1.80;86.70
55711;DHT22;41612;51.994;5.880;2023-12-07T03:07:12;1.80;86.80
55711;DHT22;41612;51.994;5.880;2023-12-07T03:09:39;1.80;86.80
55711;DHT22;41612;51.994;5.880;2023-12-07T03:12:05;1.80;86.80
55711;DHT22;41612;51.994;5.880;2023-12-07T03:14:30;1.80;86.90
55711;DHT22;41612;51.994;5.880;2023-12-07T03:16:56;1.80;86.90
55711;DHT22;41612;51.994;5.880;2023-12-07T03:19:21;1.70;87.10
55711;DHT22;41612;51.994;5.880;2023-12-07T03:21:47;1.80;87.20
55711;DHT22;41612;51.994;5.880;2023-12-07T03:24:13;1.80;87.30
55711;DHT22;41612;51.994;5.880;2023-12-07T03:26:38;1.90;87.50
55711;DHT22;41612;51.994;5.880;2023-12-07T03:29:04;1.90;87.40
55711;DHT22;41612;51.994;5.880;2023-12-07T03:31:30;2.00;87.50
55711;DHT22;41612;51.994;5.880;2023-12-07T03:33:56;2.00;87.40
55711;DHT22;41612;51.994;5.880;2023-12-07T03:36:22;2.10;87.50
55711;DHT22;41612;51.994;5.880;2023-12-07T03:38:48;2.10;87.40
55711;DHT22;41612;51.994;5.880;2023-12-07T03:41:14;2.10;87.50
55711;DHT22;41612;51.994;5.880;2023-12-07T03:43:40;2.20;87.40
55711;DHT22;41612;51.994;5.880;2023-12-07T03:46:06;2.30;87.30
55711;DHT22;41612;51.994;5.880;2023-12-07T03:48:33;2.30;87.20
55711;DHT22;41612;51.994;5.880;2023-12-07T03:50:59;2.30;86.90
55711;DHT22;41612;51.994;5.880;2023-12-07T03:53:24;2.30;86.90
55711;DHT22;41612;51.994;5.880;2023-12-07T03:55:50;2.40;86.80
55711;DHT22;41612;51.994;5.880;2023-12-07T03:58:16;2.40;86.90
55711;DHT22;41612;51.994;5.880;2023-12-07T04:00:42;2.30;87.10
55711;DHT22;41612;51.994;5.880;2023-12-07T04:03:07;2.30;87.20
55711;DHT22;41612;51.994;5.880;2023-12-07T04:05:33;2.30;87.20
55711;DHT22;41612;51.994;5.880;2023-12-07T04:07:59;2.30;87.10
55711;DHT22;41612;51.994;5.880;2023-12-07T04:10:25;2.30;87.00
55711;DHT22;41612;51.994;5.880;2023-12-07T04:12:51;2.30;87.10
55711;DHT22;41612;51.994;5.880;2023-12-07T04:15:21;2.20;87.20
55711;DHT22;41612;51.994;5.880;2023-12-07T04:17:47;2.20;87.20
55711;DHT22;41612;51.994;5.880;2023-12-07T04:20:14;2.10;87.30
55711;DHT22;41612;51.994;5.880;2023-12-07T04:22:40;2.10;87.40
55711;DHT22;41612;51.994;5.880;2023-12-07T04:25:06;2.00;87.40
55711;DHT22;41612;51.994;5.880;2023-12-07T04:27:33;2.00;87.40
55711;DHT22;41612;51.994;5.880;2023-12-07T04:29:59;2.00;87.40
55711;DHT22;41612;51.994;5.880;2023-12-07T04:32:24;1.90;87.50
55711;DHT22;41612;51.994;5.880;2023-12-07T04:34:52;1.90;87.60
55711;DHT22;41612;51.994;5.880;2023-12-07T04:37:19;1.90;87.60
55711;DHT22;41612;51.994;5.880;2023-12-07T04:39:44;1.90;87.60
55711;DHT22;41612;51.994;5.880;2023-12-07T04:42:10;1.90;87.60
55711;DHT22;41612;51.994;5.880;2023-12-07T04:44:35;1.90;87.60
55711;DHT22;41612;51.994;5.880;2023-12-07T04:47:01;1.90;87.70
55711;DHT22;41612;51.994;5.880;2023-12-07T04:49:27;1.90;87.80
55711;DHT22;41612;51.994;5.880;2023-12-07T04:51:52;1.80;87.80
55711;DHT22;41612;51.994;5.880;2023-12-07T04:54:18;1.80;87.80
55711;DHT22;41612;51.994;5.880;2023-12-07T04:56:44;1.80;87.90
55711;DHT22;41612;51.994;5.880;2023-12-07T04:59:10;1.80;87.90
55711;DHT22;41612;51.994;5.880;2023-12-07T05:01:36;1.80;87.90
55711;DHT22;41612;51.994;5.880;2023-12-07T05:04:06;1.80;87.90
55711;DHT22;41612;51.994;5.880;2023-12-07T05:06:32;1.80;87.90
55711;DHT22;41612;51.994;5.880;2023-12-07T05:08:58;1.80;87.90
55711;DHT22;41612;51.994;5.880;2023-12-07T05:11:23;1.80;87.90
55711;DHT22;41612;51.994;5.880;2023-12-07T05:13:49;1.90;87.90
55711;DHT22;41612;51.994;5.880;2023-12-07T05:16:15;1.80;87.90
55711;DHT22;41612;51.994;5.880;2023-12-07T05:18:42;1.80;87.80
55711;DHT22;41612;51.994;5.880;2023-12-07T05:21:09;1.80;87.90
55711;DHT22;41612;51.994;5.880;2023-12-07T05:23:35;1.70;87.80
55711;DHT22;41612;51.994;5.880;2023-12-07T05:26:01;1.80;87.90
55711;DHT22;41612;51.994;5.880;2023-12-07T05:28:27;1.70;87.90
55711;DHT22;41612;51.994;5.880;2023-12-07T05:30:53;1.70;87.80
55711;DHT22;41612;51.994;5.880;2023-12-07T05:33:19;1.70;87.80
55711;DHT22;41612;51.994;5.880;2023-12-07T05:35:45;1.70;87.80
55711;DHT22;41612;51.994;5.880;2023-12-07T05:38:11;1.70;87.80
55711;DHT22;41612;51.994;5.880;2023-12-07T05:40:38;1.70;87.70
55711;DHT22;41612;51.994;5.880;2023-12-07T05:43:05;1.70;87.70
55711;DHT22;41612;51.994;5.880;2023-12-07T05:45:31;1.60;87.70
55711;DHT22;41612;51.994;5.880;2023-12-07T05:47:57;1.60;87.70
55711;DHT22;41612;51.994;5.880;2023-12-07T05:50:23;1.60;87.70
55711;DHT22;41612;51.994;5.880;2023-12-07T05:52:49;1.60;87.70
55711;DHT22;41612;51.994;5.880;2023-12-07T05:55:15;1.60;87.60
55711;DHT22;41612;51.994;5.880;2023-12-07T05:57:40;1.50;87.70
55711;DHT22;41612;51.994;5.880;2023-12-07T06:00:06;1.50;87.60
55711;DHT22;41612;51.994;5.880;2023-12-07T06:02:37;1.40;87.60
55711;DHT22;41612;51.994;5.880;2023-12-07T06:05:03;1.30;87.70
55711;DHT22;41612;51.994;5.880;2023-12-07T06:07:32;1.30;87.80
55711;DHT22;41612;51.994;5.880;2023-12-07T06:09:58;1.30;87.80
55711;DHT22;41612;51.994;5.880;2023-12-07T06:12:26;1.30;87.80
55711;DHT22;41612;51.994;5.880;2023-12-07T06:14:53;1.30;87.80
55711;DHT22;41612;51.994;5.880;2023-12-07T06:17:20;1.30;87.80
55711;DHT22;41612;51.994;5.880;2023-12-07T06:19:46;1.30;87.70
55711;DHT22;41612;51.994;5.880;2023-12-07T06:22:12;1.30;87.80
55711;DHT22;41612;51.994;5.880;2023-12-07T06:24:39;1.20;87.80
55711;DHT22;41612;51.994;5.880;2023-12-07T06:27:05;1.20;87.70
55711;DHT22;41612;51.994;5.880;2023-12-07T06:29:31;1.20;87.80
55711;DHT22;41612;51.994;5.880;2023-12-07T06:31:57;1.20;87.80
55711;DHT22;41612;51.994;5.880;2023-12-07T06:34:22;1.20;87.80
55711;DHT22;41612;51.994;5.880;2023-12-07T06:36:48;1.20;87.80
55711;DHT22;41612;51.994;5.880;2023-12-07T06:39:14;1.30;87.80
55711;DHT22;41612;51.994;5.880;2023-12-07T06:41:42;1.30;87.80
55711;DHT22;41612;51.994;5.880;2023-12-07T06:44:08;1.30;87.80
55711;DHT22;41612;51.994;5.880;2023-12-07T06:46:34;1.30;87.80
55711;DHT22;41612;51.994;5.880;2023-12-07T06:48:59;1.20;88.00
55711;DHT22;41612;51.994;5.880;2023-12-07T06:51:25;1.20;88.00
55711;DHT22;41612;51.994;5.880;2023-12-07T06:53:51;1.20;88.00
55711;DHT22;41612;51.994;5.880;2023-12-07T06:56:17;1.20;87.80
55711;DHT22;41612;51.994;5.880;2023-12-07T06:58:42;1.20;87.80
55711;DHT22;41612;51.994;5.880;2023-12-07T07:01:08;1.20;87.80
55711;DHT22;41612;51.994;5.880;2023-12-07T07:03:34;1.20;87.80
55711;DHT22;41612;51.994;5.880;2023-12-07T07:06:00;1.10;87.70
55711;DHT22;41612;51.994;5.880;2023-12-07T07:08:29;1.10;87.60
55711;DHT22;41612;51.994;5.880;2023-12-07T07:10:55;1.00;87.70
55711;DHT22;41612;51.994;5.880;2023-12-07T07:13:21;1.00;87.90
55711;DHT22;41612;51.994;5.880;2023-12-07T07:15:47;1.00;88.10
55711;DHT22;41612;51.994;5.880;2023-12-07T07:18:15;1.00;88.10
55711;DHT22;41612;51.994;5.880;2023-12-07T07:20:41;1.10;88.10
55711;DHT22;41612;51.994;5.880;2023-12-07T07:23:06;1.20;88.10
55711;DHT22;41612;51.994;5.880;2023-12-07T07:25:33;1.20;87.90
55711;DHT22;41612;51.994;5.880;2023-12-07T07:28:00;1.00;87.80
55711;DHT22;41612;51.994;5.880;2023-12-07T07:30:25;1.00;87.80
55711;DHT22;41612;51.994;5.880;2023-12-07T07:32:52;1.00;87.80
55711;DHT22;41612;51.994;5.880;2023-12-07T07:35:17;1.00;87.60
55711;DHT22;41612;51.994;5.880;2023-12-07T07:37:43;0.90;87.70
55711;DHT22;41612;51.994;5.880;2023-12-07T07:40:10;1.00;87.70
55711;DHT22;41612;51.994;5.880;2023-12-07T07:42:40;0.90;87.80
55711;DHT22;41612;51.994;5.880;2023-12-07T07:45:07;0.90;87.80
55711;DHT22;41612;51.994;5.880;2023-12-07T07:47:33;0.90;87.90
55711;DHT22;41612;51.994;5.880;2023-12-07T07:49:59;1.00;87.90
55711;DHT22;41612;51.994;5.880;2023-12-07T07:52:24;1.00;87.90
55711;DHT22;41612;51.994;5.880;2023-12-07T07:54:50;1.00;87.90
55711;DHT22;41612;51.994;5.880;2023-12-07T07:57:18;1.00;87.90
55711;DHT22;41612;51.994;5.880;2023-12-07T07:59:44;1.10;88.00
55711;DHT22;41612;51.994;5.880;2023-12-07T08:02:10;1.10;87.90
55711;DHT22;41612;51.994;5.880;2023-12-07T08:04:35;1.00;87.90
55711;DHT22;41612;51.994;5.880;2023-12-07T08:07:01;1.00;87.90
55711;DHT22;41612;51.994;5.880;2023-12-07T08:09:27;1.00;88.00
55711;DHT22;41612;51.994;5.880;2023-12-07T08:11:52;0.90;88.10
55711;DHT22;41612;51.994;5.880;2023-12-07T08:14:18;1.00;88.10
55711;DHT22;41612;51.994;5.880;2023-12-07T08:16:44;1.00;88.10
55711;DHT22;41612;51.994;5.880;2023-12-07T08:19:12;1.10;87.90
55711;DHT22;41612;51.994;5.880;2023-12-07T08:21:38;1.10;87.90
55711;DHT22;41612;51.994;5.880;2023-12-07T08:24:04;1.20;87.80
55711;DHT22;41612;51.994;5.880;2023-12-07T08:26:31;1.20;87.80
55711;DHT22;41612;51.994;5.880;2023-12-07T08:28:57;1.20;87.90
55711;DHT22;41612;51.994;5.880;2023-12-07T08:31:23;1.20;87.70
55711;DHT22;41612;51.994;5.880;2023-12-07T08:33:50;1.30;87.70
55711;DHT22;41612;51.994;5.880;2023-12-07T08:36:16;1.30;87.70
55711;DHT22;41612;51.994;5.880;2023-12-07T08:38:42;1.30;87.60
55711;DHT22;41612;51.994;5.880;2023-12-07T08:41:08;1.30;87.50
55711;DHT22;41612;51.994;5.880;2023-12-07T08:43:35;1.30;87.50
55711;DHT22;41612;51.994;5.880;2023-12-07T08:46:00;1.30;87.40
55711;DHT22;41612;51.994;5.880;2023-12-07T08:48:26;1.30;87.20
55711;DHT22;41612;51.994;5.880;2023-12-07T08:50:52;1.30;87.20
55711;DHT22;41612;51.994;5.880;2023-12-07T08:53:18;1.30;87.00
55711;DHT22;41612;51.994;5.880;2023-12-07T08:55:44;1.20;87.00
55711;DHT22;41612;51.994;5.880;2023-12-07T08:58:10;1.20;87.00
55711;DHT22;41612;51.994;5.880;2023-12-07T09:00:37;1.20;87.00
55711;DHT22;41612;51.994;5.880;2023-12-07T09:03:03;1.20;87.10
55711;DHT22;41612;51.994;5.880;2023-12-07T09:05:28;1.20;87.20
55711;DHT22;41612;51.994;5.880;2023-12-07T09:07:56;1.20;87.20
55711;DHT22;41612;51.994;5.880;2023-12-07T09:10:22;1.20;87.40
55711;DHT22;41612;51.994;5.880;2023-12-07T09:12:48;1.20;87.50
55711;DHT22;41612;51.994;5.880;2023-12-07T09:15:14;1.20;87.40
55711;DHT22;41612;51.994;5.880;2023-12-07T09:17:40;1.20;87.40
55711;DHT22;41612;51.994;5.880;2023-12-07T09:20:10;1.20;87.20
55711;DHT22;41612;51.994;5.880;2023-12-07T09:22:45;1.20;87.30
55711;DHT22;41612;51.994;5.880;2023-12-07T09:25:11;1.20;87.20
55711;DHT22;41612;51.994;5.880;2023-12-07T09:27:39;1.20;87.10
55711;DHT22;41612;51.994;5.880;2023-12-07T09:30:05;1.20;87.00
55711;DHT22;41612;51.994;5.880;2023-12-07T09:32:32;1.10;87.30
55711;DHT22;41612;51.994;5.880;2023-12-07T09:34:57;1.10;87.40
55711;DHT22;41612;51.994;5.880;2023-12-07T09:37:23;1.10;87.50
55711;DHT22;41612;51.994;5.880;2023-12-07T09:39:49;1.10;87.50
55711;DHT22;41612;51.994;5.880;2023-12-07T09:42:14;1.10;87.60
55711;DHT22;41612;51.994;5.880;2023-12-07T09:44:40;1.20;87.60
55711;DHT22;41612;51.994;5.880;2023-12-07T09:47:06;1.20;87.60
55711;DHT22;41612;51.994;5.880;2023-12-07T09:49:31;1.20;87.50
55711;DHT22;41612;51.994;5.880;2023-12-07T09:51:59;1.10;87.50
55711;DHT22;41612;51.994;5.880;2023-12-07T09:54:26;1.10;87.80
55711;DHT22;41612;51.994;5.880;2023-12-07T09:56:53;1.20;87.80
55711;DHT22;41612;51.994;5.880;2023-12-07T09:59:20;1.10;87.70
55711;DHT22;41612;51.994;5.880;2023-12-07T10:01:46;1.10;87.90
55711;DHT22;41612;51.994;5.880;2023-12-07T10:04:21;1.10;87.80
55711;DHT22;41612;51.994;5.880;2023-12-07T10:06:49;1.10;87.80
55711;DHT22;41612;51.994;5.880;2023-12-07T10:09:16;1.10;87.80
55711;DHT22;41612;51.994;5.880;2023-12-07T10:11:44;1.00;87.90
55711;DHT22;41612;51.994;5.880;2023-12-07T10:14:10;1.10;88.00
55711;DHT22;41612;51.994;5.880;2023-12-07T10:16:36;1.10;88.10
55711;DHT22;41612;51.994;5.880;2023-12-07T10:19:15;1.10;88.00
55711;DHT22;41612;51.994;5.880;2023-12-07T10:21:44;1.20;88.00
55711;DHT22;41612;51.994;5.880;2023-12-07T10:24:10;1.20;88.00
55711;DHT22;41612;51.994;5.880;2023-12-07T10:26:37;1.20;88.10
55711;DHT22;41612;51.994;5.880;2023-12-07T10:29:07;1.20;87.90
55711;DHT22;41612;51.994;5.880;2023-12-07T10:31:33;1.20;88.00
55711;DHT22;41612;51.994;5.880;2023-12-07T10:34:00;1.20;88.10
55711;DHT22;41612;51.994;5.880;2023-12-07T10:36:26;1.30;88.10
55711;DHT22;41612;51.994;5.880;2023-12-07T10:38:52;1.40;88.00
55711;DHT22;41612;51.994;5.880;2023-12-07T10:41:19;1.50;87.80
55711;DHT22;41612;51.994;5.880;2023-12-07T10:43:51;1.60;87.80
55711;DHT22;41612;51.994;5.880;2023-12-07T10:46:20;1.70;87.70
55711;DHT22;41612;51.994;5.880;2023-12-07T10:48:47;1.70;87.60
55711;DHT22;41612;51.994;5.880;2023-12-07T10:54:03;1.80;87.40
55711;DHT22;41612;51.994;5.880;2023-12-07T10:56:37;1.80;87.30
55711;DHT22;41612;51.994;5.880;2023-12-07T10:59:06;1.80;87.30
55711;DHT22;41612;51.994;5.880;2023-12-07T11:01:34;1.80;87.50
55711;DHT22;41612;51.994;5.880;2023-12-07T11:04:01;1.80;87.60
55711;DHT22;41612;51.994;5.880;2023-12-07T11:06:27;1.90;87.60
55711;DHT22;41612;51.994;5.880;2023-12-07T11:08:59;1.80;87.40
55711;DHT22;41612;51.994;5.880;2023-12-07T11:11:36;1.90;87.50
55711;DHT22;41612;51.994;5.880;2023-12-07T11:14:06;2.00;87.50
55711;DHT22;41612;51.994;5.880;2023-12-07T11:16:35;2.00;87.40
55711;DHT22;41612;51.994;5.880;2023-12-07T11:19:04;2.00;87.50
55711;DHT22;41612;51.994;5.880;2023-12-07T11:22:04;2.00;87.50
55711;DHT22;41612;51.994;5.880;2023-12-07T11:24:36;2.10;87.50
55711;DHT22;41612;51.994;5.880;2023-12-07T11:27:46;2.10;87.50
55711;DHT22;41612;51.994;5.880;2023-12-07T11:30:49;2.20;87.40
55711;DHT22;41612;51.994;5.880;2023-12-07T11:33:15;2.20;87.40
55711;DHT22;41612;51.994;5.880;2023-12-07T11:38:25;2.10;87.50
55711;DHT22;41612;51.994;5.880;2023-12-07T11:40:55;2.10;87.70
55711;DHT22;41612;51.994;5.880;2023-12-07T11:46:03;2.30;87.90
55711;DHT22;41612;51.994;5.880;2023-12-07T11:48:29;2.30;87.70
55711;DHT22;41612;51.994;5.880;2023-12-07T11:53:36;2.50;87.50
55711;DHT22;41612;51.994;5.880;2023-12-07T11:56:03;2.60;87.40
55711;DHT22;41612;51.994;5.880;2023-12-07T11:58:31;2.60;87.40
55711;DHT22;41612;51.994;5.880;2023-12-07T12:00:59;2.70;87.30
55711;DHT22;41612;51.994;5.880;2023-12-07T12:03:27;2.70;87.00
55711;DHT22;41612;51.994;5.880;2023-12-07T12:05:53;2.80;86.80
55711;DHT22;41612;51.994;5.880;2023-12-07T12:08:20;2.80;86.80
55711;DHT22;41612;51.994;5.880;2023-12-07T12:10:53;2.80;86.90
55711;DHT22;41612;51.994;5.880;2023-12-07T12:13:29;2.80;86.80
55711;DHT22;41612;51.994;5.880;2023-12-07T12:15:59;2.80;86.70
55711;DHT22;41612;51.994;5.880;2023-12-07T12:18:28;2.70;86.80
55711;DHT22;41612;51.994;5.880;2023-12-07T12:20:58;2.60;87.00
55711;DHT22;41612;51.994;5.880;2023-12-07T12:23:24;2.70;87.10
55711;DHT22;41612;51.994;5.880;2023-12-07T12:25:51;2.70;87.20
55711;DHT22;41612;51.994;5.880;2023-12-07T12:28:20;2.80;87.10
55711;DHT22;41612;51.994;5.880;2023-12-07T12:30:50;2.80;87.00
55711;DHT22;41612;51.994;5.880;2023-12-07T12:33:19;2.90;86.80
55711;DHT22;41612;51.994;5.880;2023-12-07T12:35:45;2.90;86.90
55711;DHT22;41612;51.994;5.880;2023-12-07T12:38:12;2.90;86.90
55711;DHT22;41612;51.994;5.880;2023-12-07T12:40:38;2.90;86.90
55711;DHT22;41612;51.994;5.880;2023-12-07T12:43:05;2.90;86.90
55711;DHT22;41612;51.994;5.880;2023-12-07T12:45:30;2.90;86.90
55711;DHT22;41612;51.994;5.880;2023-12-07T12:47:58;2.90;86.90
55711;DHT22;41612;51.994;5.880;2023-12-07T12:50:40;2.90;86.90
55711;DHT22;41612;51.994;5.880;2023-12-07T12:53:10;2.90;86.90
55711;DHT22;41612;51.994;5.880;2023-12-07T12:55:37;2.80;86.80
55711;DHT22;41612;51.994;5.880;2023-12-07T12:58:09;2.70;86.70
55711;DHT22;41612;51.994;5.880;2023-12-07T13:00:39;2.70;86.90
55711;DHT22;41612;51.994;5.880;2023-12-07T13:03:06;2.80;87.00
55711;DHT22;41612;51.994;5.880;2023-12-07T13:05:32;2.80;87.20
55711;DHT22;41612;51.994;5.880;2023-12-07T13:08:00;2.80;87.20
55711;DHT22;41612;51.994;5.880;2023-12-07T13:10:26;2.90;87.10
55711;DHT22;41612;51.994;5.880;2023-12-07T13:12:52;2.90;86.80
55711;DHT22;41612;51.994;5.880;2023-12-07T13:15:17;3.00;86.60
55711;DHT22;41612;51.994;5.880;2023-12-07T13:17:43;3.00;86.40
55711;DHT22;41612;51.994;5.880;2023-12-07T13:20:10;3.00;86.50
55711;DHT22;41612;51.994;5.880;2023-12-07T13:22:40;3.00;86.40
55711;DHT22;41612;51.994;5.880;2023-12-07T13:25:09;2.90;86.20
55711;DHT22;41612;51.994;5.880;2023-12-07T13:27:35;2.90;86.20
55711;DHT22;41612;51.994;5.880;2023-12-07T13:30:03;2.90;86.10
55711;DHT22;41612;51.994;5.880;2023-12-07T13:32:36;2.90;86.30
55711;DHT22;41612;51.994;5.880;2023-12-07T13:35:24;2.90;86.50
55711;DHT22;41612;51.994;5.880;2023-12-07T13:37:50;3.00;86.50
55711;DHT22;41612;51.994;5.880;2023-12-07T13:40:16;3.10;86.30
55711;DHT22;41612;51.994;5.880;2023-12-07T13:42:45;3.10;86.20
55711;DHT22;41612;51.994;5.880;2023-12-07T13:45:12;3.00;86.00
55711;DHT22;41612;51.994;5.880;2023-12-07T13:47:38;3.00;85.90
55711;DHT22;41612;51.994;5.880;2023-12-07T13:50:05;3.10;86.00
55711;DHT22;41612;51.994;5.880;2023-12-07T13:52:31;3.10;86.00
55711;DHT22;41612;51.994;5.880;2023-12-07T13:54:58;3.00;85.90
55711;DHT22;41612;51.994;5.880;2023-12-07T13:57:24;3.00;85.90
55711;DHT22;41612;51.994;5.880;2023-12-07T13:59:50;3.00;85.80
55711;DHT22;41612;51.994;5.880;2023-12-07T14:02:17;2.90;85.70
55711;DHT22;41612;51.994;5.880;2023-12-07T14:04:46;3.00;85.80
55711;DHT22;41612;51.994;5.880;2023-12-07T14:07:16;2.90;85.80
55711;DHT22;41612;51.994;5.880;2023-12-07T14:09:43;2.90;85.90
55711;DHT22;41612;51.994;5.880;2023-12-07T14:12:15;3.00;86.00
55711;DHT22;41612;51.994;5.880;2023-12-07T14:14:48;3.00;86.10
55711;DHT22;41612;51.994;5.880;2023-12-07T14:17:15;3.00;86.00
55711;DHT22;41612;51.994;5.880;2023-12-07T14:19:42;3.10;86.00
55711;DHT22;41612;51.994;5.880;2023-12-07T14:22:15;3.10;86.00
55711;DHT22;41612;51.994;5.880;2023-12-07T14:24:41;3.10;85.90
55711;DHT22;41612;51.994;5.880;2023-12-07T14:27:07;3.10;85.90
55711;DHT22;41612;51.994;5.880;2023-12-07T14:29:34;3.10;85.80
55711;DHT22;41612;51.994;5.880;2023-12-07T14:32:00;3.10;85.90
55711;DHT22;41612;51.994;5.880;2023-12-07T14:34:26;3.10;85.80
55711;DHT22;41612;51.994;5.880;2023-12-07T14:36:55;3.20;85.80
55711;DHT22;41612;51.994;5.880;2023-12-07T14:39:20;3.20;85.90
55711;DHT22;41612;51.994;5.880;2023-12-07T14:41:48;3.20;85.90
55711;DHT22;41612;51.994;5.880;2023-12-07T14:44:19;3.20;85.90
55711;DHT22;41612;51.994;5.880;2023-12-07T14:46:46;3.20;86.00
55711;DHT22;41612;51.994;5.880;2023-12-07T14:49:13;3.20;85.90
55711;DHT22;41612;51.994;5.880;2023-12-07T14:51:41;3.20;85.90
55711;DHT22;41612;51.994;5.880;2023-12-07T14:54:07;3.20;85.90
55711;DHT22;41612;51.994;5.880;2023-12-07T14:56:33;3.10;85.80
55711;DHT22;41612;51.994;5.880;2023-12-07T14:59:06;3.10;85.80
55711;DHT22;41612;51.994;5.880;2023-12-07T15:01:33;3.10;86.00
55711;DHT22;41612;51.994;5.880;2023-12-07T15:03:59;3.10;85.90
55711;DHT22;41612;51.994;5.880;2023-12-07T15:06:28;3.10;85.90
55711;DHT22;41612;51.994;5.880;2023-12-07T15:08:53;3.10;86.00
55711;DHT22;41612;51.994;5.880;2023-12-07T15:11:23;3.00;86.00
55711;DHT22;41612;51.994;5.880;2023-12-07T15:13:49;3.00;85.90
55711;DHT22;41612;51.994;5.880;2023-12-07T15:16:26;3.00;86.00
55711;DHT22;41612;51.994;5.880;2023-12-07T15:18:52;2.90;86.10
55711;DHT22;41612;51.994;5.880;2023-12-07T15:21:20;2.90;86.00
55711;DHT22;41612;51.994;5.880;2023-12-07T15:23:46;2.80;86.00
55711;DHT22;41612;51.994;5.880;2023-12-07T15:26:15;2.80;86.10
55711;DHT22;41612;51.994;5.880;2023-12-07T15:28:42;2.70;86.30
55711;DHT22;41612;51.994;5.880;2023-12-07T15:31:08;2.70;86.40
55711;DHT22;41612;51.994;5.880;2023-12-07T15:33:34;2.70;86.40
55711;DHT22;41612;51.994;5.880;2023-12-07T15:36:01;2.60;86.40
55711;DHT22;41612;51.994;5.880;2023-12-07T15:38:28;2.60;86.50
55711;DHT22;41612;51.994;5.880;2023-12-07T15:40:56;2.60;86.60
55711;DHT22;41612;51.994;5.880;2023-12-07T15:43:31;2.50;86.60
55711;DHT22;41612;51.994;5.880;2023-12-07T15:45:57;2.50;86.70
55711;DHT22;41612;51.994;5.880;2023-12-07T15:48:26;2.50;86.70
55711;DHT22;41612;51.994;5.880;2023-12-07T15:50:51;2.40;86.80
55711;DHT22;41612;51.994;5.880;2023-12-07T15:53:17;2.40;86.90
55711;DHT22;41612;51.994;5.880;2023-12-07T15:55:46;2.40;87.00